createdAt,value
2023-03-03T00:01:49.152Z,97651.75
2023-03-03T00:04:17.327Z,97679.50
2023-03-03T00:06:46.250Z,97659.69
2023-03-03T00:09:14.407Z,97675.16
2023-03-03T00:11:43.916Z,97685.56
2023-03-03T00:14:23.396Z,97670.81
2023-03-03T00:16:51.551Z,97649.13
2023-03-03T00:19:21.786Z,97664.75
2023-03-03T00:21:51.725Z,97667.34
2023-03-03T00:24:23.015Z,97668.25
2023-03-03T00:26:55.614Z,97654.47
2023-03-03T00:29:32.679Z,97660.44
2023-03-03T00:32:18.373Z,97661.31
2023-03-03T00:34:47.270Z,97645.91
2023-03-03T00:37:27.010Z,97658.81
2023-03-03T00:39:55.707Z,97642.31
2023-03-03T00:42:27.487Z,97657.03
2023-03-03T00:44:58.746Z,97631.25
2023-03-03T00:47:31.802Z,97653.53
2023-03-03T00:50:35.958Z,97649.25
2023-03-03T00:53:07.554Z,97652.69
2023-03-03T00:55:37.169Z,97654.47
2023-03-03T00:58:06.904Z,97651.03
2023-03-03T01:00:35.735Z,97648.50
2023-03-03T01:03:05.806Z,97642.41
2023-03-03T01:05:34.089Z,97635.41
2023-03-03T01:08:03.192Z,97593.94
2023-03-03T01:10:33.799Z,97632.00
2023-03-03T01:13:02.157Z,97604.34
2023-03-03T01:15:31.825Z,97623.31
2023-03-03T01:18:00.022Z,97619.00
2023-03-03T01:20:28.165Z,97535.44
2023-03-03T01:22:56.323Z,97618.13
2023-03-03T01:25:24.486Z,97593.88
2023-03-03T01:27:52.643Z,97595.63
2023-03-03T01:30:20.957Z,97416.41
2023-03-03T01:32:50.493Z,97620.72
2023-03-03T01:35:19.259Z,97607.78
2023-03-03T01:37:47.462Z,97592.28
2023-03-03T01:40:19.692Z,97610.41
2023-03-03T01:42:47.832Z,97608.75
2023-03-03T01:45:19.996Z,97608.81
2023-03-03T01:47:58.087Z,97592.41
2023-03-03T01:50:37.202Z,97624.38
2023-03-03T01:53:07.940Z,97505.44
2023-03-03T01:55:38.547Z,97610.53
2023-03-03T01:58:12.353Z,97501.91
2023-03-03T02:00:43.709Z,97597.50
2023-03-03T02:03:13.485Z,97599.19
2023-03-03T02:05:43.254Z,97586.25
2023-03-03T02:08:16.925Z,97594.97
2023-03-03T02:10:47.352Z,97583.75
2023-03-03T02:13:15.651Z,97593.25
2023-03-03T02:15:43.699Z,97598.47
2023-03-03T02:18:16.907Z,97588.97
2023-03-03T02:20:55.345Z,97591.56
2023-03-03T02:23:28.428Z,97588.97
2023-03-03T02:26:13.668Z,97420.97
2023-03-03T02:28:43.270Z,97588.13
2023-03-03T02:31:14.314Z,97582.94
2023-03-03T02:33:43.288Z,97472.56
2023-03-03T02:36:14.706Z,97561.41
2023-03-03T02:38:47.607Z,97582.13
2023-03-03T02:41:28.430Z,97577.78
2023-03-03T02:44:01.209Z,97577.78
2023-03-03T02:46:29.534Z,97559.69
2023-03-03T02:48:57.677Z,97520.06
2023-03-03T02:51:25.807Z,97572.59
2023-03-03T02:53:53.991Z,97576.03
2023-03-03T02:56:24.111Z,97569.09
2023-03-03T02:58:52.566Z,97570.84
2023-03-03T03:01:21.070Z,97563.03
2023-03-03T03:03:49.313Z,97559.63
2023-03-03T03:06:17.568Z,97538.03
2023-03-03T03:08:45.731Z,97559.59
2023-03-03T03:11:13.837Z,97563.03
2023-03-03T03:13:43.376Z,97540.63
2023-03-03T03:16:11.539Z,97427.88
2023-03-03T03:18:39.702Z,97557.06
2023-03-03T03:21:09.864Z,97552.72
2023-03-03T03:23:38.488Z,97547.53
2023-03-03T03:26:07.380Z,97551.88
2023-03-03T03:28:36.154Z,97546.81
2023-03-03T03:31:07.033Z,97557.25
2023-03-03T03:33:35.276Z,97548.66
2023-03-03T03:36:04.745Z,97544.31
2023-03-03T03:38:33.373Z,97542.59
2023-03-03T03:41:01.846Z,97545.19
2023-03-03T03:43:30.619Z,97545.16
2023-03-03T03:45:59.171Z,97546.03
2023-03-03T03:48:28.823Z,97483.06
2023-03-03T03:50:57.024Z,97540.81
2023-03-03T03:53:25.241Z,97525.31
2023-03-03T03:55:53.431Z,97542.50
2023-03-03T03:58:21.795Z,97539.00
2023-03-03T04:00:50.024Z,97543.31
2023-03-03T04:03:18.471Z,97532.06
2023-03-03T04:05:48.323Z,97528.66
2023-03-03T04:08:16.555Z,97516.66
2023-03-03T04:10:44.663Z,97507.19
2023-03-03T04:13:12.838Z,97468.44
2023-03-03T04:15:41.122Z,97521.88
2023-03-03T04:18:09.347Z,97535.63
2023-03-03T04:20:37.527Z,97539.16
2023-03-03T04:23:07.173Z,97533.09
2023-03-03T04:25:35.392Z,97532.28
2023-03-03T04:28:05.515Z,97542.75
2023-03-03T04:30:33.866Z,97518.66
2023-03-03T04:33:02.085Z,97535.91
2023-03-03T04:35:30.503Z,97518.69
2023-03-03T04:37:58.791Z,97485.94
2023-03-03T04:40:28.496Z,97537.66
2023-03-03T04:42:56.831Z,97539.38
2023-03-03T04:45:25.005Z,97540.25
2023-03-03T04:47:53.284Z,97545.44
2023-03-03T04:50:21.558Z,97541.09
2023-03-03T04:52:49.758Z,97548.03
2023-03-03T04:55:18.175Z,97548.06
2023-03-03T04:57:47.824Z,97546.31
2023-03-03T05:00:16.673Z,97548.03
2023-03-03T05:02:44.896Z,97542.81
2023-03-03T05:05:13.835Z,97494.50
2023-03-03T05:07:42.481Z,97536.84
2023-03-03T05:10:11.874Z,97545.44
2023-03-03T05:12:40.188Z,97528.16
2023-03-03T05:15:10.833Z,97360.16
2023-03-03T05:17:39.091Z,97548.88
2023-03-03T05:20:08.692Z,97554.09
2023-03-03T05:22:36.796Z,97489.41
2023-03-03T05:25:05.435Z,97559.16
2023-03-03T05:27:33.612Z,97561.81
2023-03-03T05:30:01.680Z,97559.22
2023-03-03T05:32:31.252Z,97563.50
2023-03-03T05:34:59.403Z,97520.38
2023-03-03T05:37:27.610Z,97165.63
2023-03-03T05:39:55.742Z,97564.38
2023-03-03T05:42:23.949Z,97367.88
2023-03-03T05:44:52.332Z,97567.84
2023-03-03T05:47:20.499Z,97548.88
2023-03-03T05:49:50.037Z,97573.88
2023-03-03T05:52:18.208Z,97550.59
2023-03-03T05:54:46.472Z,97578.16
2023-03-03T05:57:14.590Z,97563.44
2023-03-03T05:59:42.814Z,97581.53
2023-03-03T06:02:11.012Z,97557.34
2023-03-03T06:04:40.056Z,97581.47
2023-03-03T06:07:09.573Z,97578.94
2023-03-03T06:09:38.233Z,97524.63
2023-03-03T06:12:07.165Z,97569.47
2023-03-03T06:14:35.494Z,97574.69
2023-03-03T06:17:03.699Z,97585.88
2023-03-03T06:19:32.003Z,97586.72
2023-03-03T06:22:00.877Z,97585.84
2023-03-03T06:24:31.816Z,97508.25
2023-03-03T06:27:00.748Z,97598.75
2023-03-03T06:29:29.553Z,97601.31
2023-03-03T06:31:57.948Z,97598.69
2023-03-03T06:34:26.188Z,97609.03
2023-03-03T06:36:54.565Z,97608.09
2023-03-03T06:39:22.791Z,97615.91
2023-03-03T06:41:52.467Z,97621.09
2023-03-03T06:44:20.776Z,97580.56
2023-03-03T06:46:49.057Z,97619.38
2023-03-03T06:49:17.146Z,97623.59
2023-03-03T06:51:46.626Z,97628.00
2023-03-03T06:54:16.831Z,97631.41
2023-03-03T06:56:46.733Z,97576.16
2023-03-03T06:59:18.576Z,97633.91
2023-03-03T07:01:48.727Z,97621.03
2023-03-03T07:04:26.351Z,97624.41
2023-03-03T07:06:54.573Z,97649.47
2023-03-03T07:09:25.570Z,97626.25
2023-03-03T07:11:54.256Z,97653.88
2023-03-03T07:14:23.969Z,97659.97
2023-03-03T07:16:59.413Z,97665.19
2023-03-03T07:19:34.465Z,97665.13
2023-03-03T07:22:13.505Z,97678.13
2023-03-03T07:24:42.117Z,97559.06
2023-03-03T07:27:15.476Z,97676.34
2023-03-03T07:29:45.218Z,97680.59
2023-03-03T07:32:27.156Z,97630.47
2023-03-03T07:34:57.114Z,97677.88
2023-03-03T07:37:32.238Z,97670.97
2023-03-03T07:40:02.077Z,97644.28
2023-03-03T07:42:37.639Z,97671.06
2023-03-03T07:45:26.281Z,97669.28
2023-03-03T07:48:02.070Z,97638.19
2023-03-03T07:50:30.319Z,97664.75
2023-03-03T07:53:00.749Z,97661.19
2023-03-03T07:55:35.496Z,97639.53
2023-03-03T07:58:22.341Z,97661.94
2023-03-03T08:01:29.481Z,97660.84
2023-03-03T08:03:59.407Z,97666.84
2023-03-03T08:06:43.791Z,97664.16
2023-03-03T08:09:40.681Z,97672.66
2023-03-03T08:12:30.151Z,97655.34
2023-03-03T08:15:12.697Z,97661.16
2023-03-03T08:17:43.710Z,97665.44
2023-03-03T08:20:47.526Z,97673.09
2023-03-03T08:23:17.797Z,97667.75
2023-03-03T08:25:46.597Z,97661.59
2023-03-03T08:28:15.541Z,97672.00
2023-03-03T08:30:45.413Z,97671.03
2023-03-03T08:33:14.792Z,97671.78
2023-03-03T08:35:43.698Z,97619.91
2023-03-03T08:38:14.958Z,97675.81
2023-03-03T08:40:43.273Z,97668.00
2023-03-03T08:43:13.375Z,97680.91
2023-03-03T08:45:41.622Z,97680.00
2023-03-03T08:48:09.874Z,97678.41
2023-03-03T08:50:38.666Z,97689.00
2023-03-03T08:53:07.660Z,97693.28
2023-03-03T08:55:37.343Z,97697.53
2023-03-03T08:58:05.734Z,97694.91
2023-03-03T09:00:34.583Z,97572.31
2023-03-03T09:03:03.208Z,97691.91
2023-03-03T09:05:31.859Z,97689.03
2023-03-03T09:08:00.882Z,97691.41
2023-03-03T09:10:32.013Z,97682.47
2023-03-03T09:13:06.047Z,97618.81
2023-03-03T09:15:36.272Z,97683.97
2023-03-03T09:18:16.251Z,97644.91
2023-03-03T09:20:45.746Z,97675.34
2023-03-03T09:23:31.672Z,97660.91
2023-03-03T09:26:12.580Z,97581.19
2023-03-03T09:28:42.177Z,97682.59
2023-03-03T09:31:24.802Z,97659.78
2023-03-03T09:33:55.375Z,97686.22
2023-03-03T09:36:27.332Z,97550.88
2023-03-03T09:38:57.076Z,97677.22
2023-03-03T09:41:51.888Z,97678.63
2023-03-03T09:44:57.322Z,97667.19
2023-03-03T09:47:40.711Z,97689.53
2023-03-03T09:50:21.954Z,97687.84
2023-03-03T09:52:57.334Z,97684.81
2023-03-03T09:55:38.071Z,97702.19
2023-03-03T09:58:35.519Z,97681.34
2023-03-03T10:01:24.345Z,97699.63
2023-03-03T10:04:08.366Z,97684.34
2023-03-03T10:06:44.156Z,97684.34
2023-03-03T10:09:36.851Z,97676.06
2023-03-03T10:12:12.370Z,97702.34
2023-03-03T10:14:55.230Z,97656.22
2023-03-03T10:17:34.412Z,97673.38
2023-03-03T10:20:16.753Z,97675.50
2023-03-03T10:22:53.881Z,97662.34
2023-03-03T10:25:44.615Z,97663.19
2023-03-03T10:28:36.546Z,97656.00
2023-03-03T10:31:18.600Z,97679.16
2023-03-03T10:33:56.415Z,97668.59
2023-03-03T10:36:41.327Z,97574.31
2023-03-03T10:39:39.905Z,97623.63
2023-03-03T10:42:21.215Z,97637.97
2023-03-03T10:45:03.507Z,97561.09
2023-03-03T10:47:44.652Z,97604.53
2023-03-03T10:50:22.499Z,97654.25
2023-03-03T10:52:55.670Z,97646.00
2023-03-03T10:55:43.887Z,97641.41
2023-03-03T10:58:33.822Z,97628.41
2023-03-03T11:01:11.865Z,97620.59
2023-03-03T11:04:10.246Z,97639.59
2023-03-03T11:06:48.294Z,97643.66
2023-03-03T11:09:37.886Z,97608.59
2023-03-03T11:12:15.965Z,97640.69
2023-03-03T11:14:49.236Z,97525.25
2023-03-03T11:17:25.343Z,97631.94
2023-03-03T11:20:04.973Z,97627.28
2023-03-03T11:22:42.147Z,97615.38
2023-03-03T11:25:25.333Z,97608.03
2023-03-03T11:28:06.680Z,97619.44
2023-03-03T11:30:59.980Z,97625.28
2023-03-03T11:33:35.465Z,97629.88
2023-03-03T11:36:12.351Z,97605.44
2023-03-03T11:38:53.429Z,97599.03
2023-03-03T11:41:31.545Z,97607.88
2023-03-03T11:44:07.201Z,97603.28
2023-03-03T11:46:42.145Z,97601.91
2023-03-03T11:49:17.340Z,97609.78
2023-03-03T11:52:03.021Z,97602.34
2023-03-03T11:54:48.412Z,97589.41
2023-03-03T11:57:22.825Z,97598.16
2023-03-03T12:00:01.013Z,97586.69
2023-03-03T12:02:44.192Z,97598.09
2023-03-03T12:05:21.182Z,97542.41
2023-03-03T12:07:58.907Z,97588.19
2023-03-03T12:10:38.732Z,97551.53
2023-03-03T12:13:13.231Z,97588.53
2023-03-03T12:15:50.683Z,97563.09
2023-03-03T12:18:51.469Z,97583.06
2023-03-03T12:21:35.803Z,97479.06
2023-03-03T12:24:23.667Z,97587.44
2023-03-03T12:26:59.790Z,97585.44
2023-03-03T12:29:33.111Z,97540.97
2023-03-03T12:32:15.963Z,97583.22
2023-03-03T12:34:54.207Z,97578.19
2023-03-03T12:37:42.082Z,97571.28
2023-03-03T12:40:15.763Z,97576.00
2023-03-03T12:42:58.846Z,97568.19
2023-03-03T12:45:54.072Z,97556.63
2023-03-03T12:48:26.813Z,97566.75
2023-03-03T12:51:03.521Z,97510.66
2023-03-03T12:53:49.871Z,97561.00
2023-03-03T12:56:24.788Z,97474.56
2023-03-03T12:59:02.280Z,97563.63
2023-03-03T13:01:45.308Z,97556.25
2023-03-03T13:04:22.670Z,97547.69
2023-03-03T13:06:56.932Z,97548.84
2023-03-03T13:09:34.646Z,97533.16
2023-03-03T13:12:20.492Z,97530.13
2023-03-03T13:14:55.210Z,97527.41
2023-03-03T13:17:30.082Z,97524.06
2023-03-03T13:20:01.229Z,97540.72
2023-03-03T13:22:38.961Z,97548.09
2023-03-03T13:25:23.546Z,97526.81
2023-03-03T13:27:57.774Z,97545.41
2023-03-03T13:30:31.941Z,97497.72
2023-03-03T13:33:06.793Z,97548.78
2023-03-03T13:35:43.722Z,97551.63
2023-03-03T13:38:15.064Z,97528.56
2023-03-03T13:40:47.300Z,97543.34
2023-03-03T13:43:20.300Z,97549.41
2023-03-03T13:46:05.983Z,97544.81
2023-03-03T13:48:53.859Z,97545.88
2023-03-03T13:51:33.769Z,97540.19
2023-03-03T13:54:14.534Z,97539.50
2023-03-03T13:57:07.480Z,97540.16
2023-03-03T13:59:45.484Z,97519.97
2023-03-03T14:02:35.961Z,97532.78
2023-03-03T14:05:13.011Z,97532.31
2023-03-03T14:07:46.648Z,97528.00
2023-03-03T14:10:22.016Z,97528.09
2023-03-03T14:12:57.935Z,97524.19
2023-03-03T14:15:30.949Z,97508.16
2023-03-03T14:18:23.105Z,97527.13
2023-03-03T14:20:53.786Z,97508.72
2023-03-03T14:23:28.854Z,97522.47
2023-03-03T14:26:01.620Z,97514.88
2023-03-03T14:28:31.455Z,97522.25
2023-03-03T14:31:10.820Z,97500.38
2023-03-03T14:33:40.927Z,97526.44
2023-03-03T14:36:16.127Z,97520.84
2023-03-03T14:38:51.804Z,97515.28
2023-03-03T14:41:22.592Z,97520.63
2023-03-03T14:44:02.479Z,97518.69
2023-03-03T14:46:40.410Z,97507.06
2023-03-03T14:49:16.999Z,97517.91
2023-03-03T14:51:48.479Z,97497.81
2023-03-03T14:54:24.143Z,97519.81
2023-03-03T14:57:08.463Z,97516.63
2023-03-03T14:59:36.678Z,97504.03
2023-03-03T15:02:33.247Z,97512.38
2023-03-03T15:05:19.938Z,97490.75
2023-03-03T15:07:50.397Z,97514.75
2023-03-03T15:10:33.521Z,97501.69
2023-03-03T15:13:30.408Z,97429.41
2023-03-03T15:16:12.299Z,97503.78
2023-03-03T15:19:23.958Z,97507.44
2023-03-03T15:22:02.822Z,97508.56
2023-03-03T15:24:41.622Z,97506.22
2023-03-03T15:27:15.252Z,97509.34
2023-03-03T15:29:54.415Z,97502.84
2023-03-03T15:32:30.830Z,97506.78
2023-03-03T15:35:07.840Z,97473.00
2023-03-03T15:37:47.227Z,97428.56
2023-03-03T15:40:25.892Z,97501.25
2023-03-03T15:43:03.325Z,97480.56
2023-03-03T15:45:35.634Z,97482.81
2023-03-03T15:48:29.998Z,97506.72
2023-03-03T15:51:07.973Z,97512.97
2023-03-03T15:54:00.008Z,97510.63
2023-03-03T15:56:36.174Z,97496.53
2023-03-03T15:59:30.881Z,97513.75
2023-03-03T16:02:13.391Z,97517.84
2023-03-03T16:04:49.664Z,97512.91
2023-03-03T16:07:32.148Z,97500.44
2023-03-03T16:10:12.324Z,97411.84
2023-03-03T16:12:53.614Z,97370.59
2023-03-03T16:15:32.987Z,97526.28
2023-03-03T16:18:09.769Z,97513.00
2023-03-03T16:20:44.978Z,97364.00
2023-03-03T16:23:22.725Z,97537.28
2023-03-03T16:26:03.887Z,97533.16
2023-03-03T16:28:44.396Z,97516.03
2023-03-03T16:31:18.619Z,97568.28
2023-03-03T16:33:56.545Z,97528.22
2023-03-03T16:36:39.092Z,97541.53
2023-03-03T16:39:14.395Z,97527.13
2023-03-03T16:41:52.528Z,97554.31
2023-03-03T16:44:34.790Z,97555.53
2023-03-03T16:47:15.538Z,97556.75
2023-03-03T16:49:55.503Z,97463.44
2023-03-03T16:52:35.091Z,97542.56
2023-03-03T16:55:09.768Z,97565.94
2023-03-03T16:57:52.569Z,97574.88
2023-03-03T17:00:22.992Z,97569.81
2023-03-03T17:03:18.957Z,97583.91
2023-03-03T17:05:53.198Z,97585.84
2023-03-03T17:08:43.053Z,97584.88
2023-03-03T17:11:18.367Z,97595.31
2023-03-03T17:14:11.503Z,97586.81
2023-03-03T17:16:52.643Z,97594.16
2023-03-03T17:19:41.764Z,97576.97
2023-03-03T17:22:19.405Z,97456.34
2023-03-03T17:25:02.028Z,97582.91
2023-03-03T17:27:41.858Z,97546.41
2023-03-03T17:30:19.276Z,97607.34
2023-03-03T17:33:12.614Z,97595.31
2023-03-03T17:36:00.484Z,97594.50
2023-03-03T17:38:39.716Z,97612.66
2023-03-03T17:41:12.461Z,97622.16
2023-03-03T17:43:47.246Z,97629.88
2023-03-03T17:46:32.233Z,97469.03
2023-03-03T17:49:27.019Z,97612.75
2023-03-03T17:52:21.379Z,97513.34
2023-03-03T17:55:23.402Z,97638.31
2023-03-03T17:58:17.330Z,97645.50
2023-03-03T18:00:55.419Z,97559.53
2023-03-03T18:03:52.682Z,97641.31
2023-03-03T18:07:05.159Z,97624.13
2023-03-03T18:09:57.939Z,97655.22
2023-03-03T18:12:38.954Z,97601.09
2023-03-03T18:15:21.647Z,97654.22
2023-03-03T18:18:03.442Z,97652.50
2023-03-03T18:21:00.728Z,97655.25
2023-03-03T18:23:35.489Z,97443.81
2023-03-03T18:26:05.805Z,97652.25
2023-03-03T18:29:07.358Z,97661.72
2023-03-03T18:31:48.480Z,97659.16
2023-03-03T18:34:35.044Z,97661.09
2023-03-03T18:37:10.757Z,97564.72
2023-03-03T18:39:46.096Z,97676.09
2023-03-03T18:42:39.938Z,97684.03
2023-03-03T18:45:54.084Z,97682.44
2023-03-03T18:48:53.386Z,97688.53
2023-03-03T18:51:53.623Z,97699.06
2023-03-03T18:54:33.454Z,97696.41
2023-03-03T18:57:20.787Z,97684.47
2023-03-03T19:00:09.763Z,97681.13
2023-03-03T19:02:46.426Z,97705.31
2023-03-03T19:05:24.078Z,97714.84
2023-03-03T19:07:58.118Z,97684.72
2023-03-03T19:10:54.103Z,97711.38
2023-03-03T19:13:48.387Z,97699.31
2023-03-03T19:16:38.952Z,97598.47
2023-03-03T19:19:14.109Z,97715.66
2023-03-03T19:21:44.030Z,97720.00
2023-03-03T19:24:42.575Z,97718.34
2023-03-03T19:27:25.351Z,97391.88
2023-03-03T19:30:22.805Z,97730.47
2023-03-03T19:33:15.194Z,97737.38
2023-03-03T19:36:02.750Z,97732.03
2023-03-03T19:38:39.807Z,97739.19
2023-03-03T19:41:27.967Z,97742.84
2023-03-03T19:44:08.872Z,97720.44
2023-03-03T19:46:56.503Z,97738.53
2023-03-03T19:49:39.562Z,97739.44
2023-03-03T19:52:14.148Z,97698.97
2023-03-03T19:55:11.775Z,97724.75
2023-03-03T19:57:51.649Z,97705.78
2023-03-03T20:00:28.674Z,97745.44
2023-03-03T20:03:20.758Z,97745.66
2023-03-03T20:05:52.745Z,97746.47
2023-03-03T20:08:27.268Z,97744.06
2023-03-03T20:11:03.293Z,97750.25
2023-03-03T20:13:48.489Z,97750.31
2023-03-03T20:16:29.892Z,97754.69
2023-03-03T20:19:26.406Z,97746.06
2023-03-03T20:22:07.832Z,97725.41
2023-03-03T20:25:05.371Z,97729.63
2023-03-03T20:27:40.721Z,97746.97
2023-03-03T20:30:25.295Z,97741.75
2023-03-03T20:33:07.388Z,97749.50
2023-03-03T20:35:40.685Z,97754.72
2023-03-03T20:38:13.693Z,97755.63
2023-03-03T20:40:45.338Z,97754.00
2023-03-03T20:43:29.075Z,97753.28
2023-03-03T20:46:07.882Z,97730.91
2023-03-03T20:49:08.740Z,97759.38
2023-03-03T20:51:44.820Z,97759.38
2023-03-03T20:54:23.627Z,97742.94
2023-03-03T20:56:57.836Z,97763.69
2023-03-03T20:59:33.100Z,97773.28
2023-03-03T21:02:10.419Z,97741.31
2023-03-03T21:04:40.176Z,97762.00
2023-03-03T21:07:08.382Z,97763.78
2023-03-03T21:09:38.998Z,97761.19
2023-03-03T21:12:13.247Z,97762.03
2023-03-03T21:14:41.485Z,97762.03
2023-03-03T21:17:28.123Z,97742.16
2023-03-03T21:20:17.738Z,97761.22
2023-03-03T21:22:45.961Z,97762.97
2023-03-03T21:25:34.194Z,97769.91
2023-03-03T21:28:19.691Z,97596.41
2023-03-03T21:31:11.647Z,97709.50
2023-03-03T21:33:41.547Z,97792.50
2023-03-03T21:36:11.634Z,97751.91
2023-03-03T21:38:40.228Z,97772.59
2023-03-03T21:41:09.953Z,97775.22
2023-03-03T21:43:41.056Z,97753.56
2023-03-03T21:46:09.584Z,97712.16
2023-03-03T21:48:41.854Z,97763.09
2023-03-03T21:51:14.122Z,97748.44
2023-03-03T21:53:44.177Z,97762.28
2023-03-03T21:56:13.963Z,97782.19
2023-03-03T21:58:42.530Z,97771.81
2023-03-03T22:01:12.133Z,97770.13
2023-03-03T22:03:40.751Z,97750.22
2023-03-03T22:06:09.103Z,97778.75
2023-03-03T22:08:38.736Z,97775.28
2023-03-03T22:11:06.919Z,97777.00
2023-03-03T22:13:35.120Z,97777.91
2023-03-03T22:16:03.372Z,97755.47
2023-03-03T22:18:31.536Z,97650.09
2023-03-03T22:20:59.778Z,97777.09
2023-03-03T22:23:27.951Z,97632.00
2023-03-03T22:25:57.577Z,97746.00
2023-03-03T22:28:25.971Z,97761.56
2023-03-03T22:30:54.232Z,97769.34
2023-03-03T22:33:22.642Z,97720.09
2023-03-03T22:35:50.870Z,97668.25
2023-03-03T22:38:19.101Z,97778.84
2023-03-03T22:40:47.334Z,97748.63
2023-03-03T22:43:16.974Z,97745.13
2023-03-03T22:45:45.404Z,97771.06
2023-03-03T22:48:14.114Z,97775.38
2023-03-03T22:50:43.726Z,97775.38
2023-03-03T22:53:11.847Z,97771.09
2023-03-03T22:55:39.956Z,97725.28
2023-03-03T22:58:09.617Z,97556.91
2023-03-03T23:00:40.025Z,97767.59
2023-03-03T23:03:08.555Z,97765.88
2023-03-03T23:05:36.965Z,97740.84
2023-03-03T23:08:05.519Z,97764.16
2023-03-03T23:10:33.708Z,97756.41
2023-03-03T23:13:01.828Z,97766.75
2023-03-03T23:15:30.117Z,97762.44
2023-03-03T23:17:59.677Z,97768.47
2023-03-03T23:20:29.517Z,97768.47
2023-03-03T23:22:58.525Z,97757.25
2023-03-03T23:25:27.044Z,97750.34
2023-03-03T23:27:55.939Z,97759.84
2023-03-03T23:30:24.928Z,97661.31
2023-03-03T23:32:53.230Z,97765.88
2023-03-03T23:35:22.695Z,97762.41
2023-03-03T23:37:50.837Z,97760.69
2023-03-03T23:40:19.371Z,97770.22
2023-03-03T23:42:47.518Z,97725.22
2023-03-03T23:45:15.830Z,97761.50
2023-03-03T23:47:44.169Z,97758.03
2023-03-03T23:50:13.630Z,97766.72
2023-03-03T23:52:43.257Z,97764.97
2023-03-03T23:55:12.029Z,97773.56
2023-03-03T23:57:40.122Z,97767.56
